createdAt,value
2017-06-29T00:00:46.178Z,0
2017-06-29T00:01:31.886Z,0
2017-06-29T00:02:31.914Z,0
2017-06-29T00:03:31.945Z,0
2017-06-29T00:04:31.964Z,0
2017-06-29T00:05:32.035Z,0
2017-06-29T00:06:32.018Z,0
2017-06-29T00:07:32.044Z,0
2017-06-29T00:08:32.072Z,0
2017-06-29T00:09:32.094Z,0
2017-06-29T00:10:46.736Z,0
2017-06-29T00:11:32.138Z,0
2017-06-29T00:12:32.169Z,0
2017-06-29T00:13:32.202Z,0
2017-06-29T00:14:46.844Z,0
2017-06-29T00:15:32.254Z,0
2017-06-29T00:16:32.270Z,0
2017-06-29T00:18:32.324Z,0
2017-06-29T00:19:46.965Z,0
2017-06-29T00:20:32.374Z,0
2017-06-29T00:21:47.015Z,0
2017-06-29T00:22:32.429Z,0
2017-06-29T00:23:32.456Z,0
2017-06-29T00:24:47.096Z,0
2017-06-29T00:25:47.123Z,0
2017-06-29T00:26:32.529Z,0
2017-06-29T00:27:32.257Z,0
2017-06-29T00:28:32.587Z,0
2017-06-29T00:30:32.635Z,0
2017-06-29T00:31:32.663Z,0
2017-06-29T00:32:32.681Z,0
2017-06-29T00:33:47.338Z,0
2017-06-29T00:34:32.744Z,0
2017-06-29T00:35:32.763Z,0
2017-06-29T00:36:32.803Z,0
2017-06-29T00:37:32.810Z,0
2017-06-29T00:38:47.454Z,0
2017-06-29T00:39:32.861Z,0
2017-06-29T00:40:47.510Z,0
2017-06-29T00:41:32.911Z,0
2017-06-29T00:42:47.557Z,0
2017-06-29T00:44:02.196Z,0
2017-06-29T00:44:32.998Z,0
2017-06-29T00:45:47.633Z,0
2017-06-29T00:46:47.700Z,0
2017-06-29T00:47:32.764Z,0
2017-06-29T00:48:33.096Z,0
2017-06-29T00:50:47.765Z,0
2017-06-29T00:51:47.790Z,0
2017-06-29T00:52:33.195Z,0
2017-06-29T00:53:32.922Z,0
2017-06-29T00:54:47.868Z,0
2017-06-29T00:55:33.273Z,0
2017-06-29T00:56:33.295Z,0
2017-06-29T00:57:47.996Z,0
2017-06-29T00:58:47.664Z,0
2017-06-29T00:59:32.771Z,0
2017-06-29T01:01:33.428Z,0
2017-06-29T01:03:33.493Z,0
2017-06-29T01:06:33.550Z,0
2017-06-29T01:07:48.198Z,0
2017-06-29T01:08:33.308Z,0
2017-06-29T01:09:33.632Z,0
2017-06-29T01:10:33.652Z,0
2017-06-29T01:11:33.680Z,0
2017-06-29T01:12:33.705Z,0
2017-06-29T01:13:33.790Z,0
2017-06-29T01:14:33.456Z,0
2017-06-29T01:16:33.814Z,0
2017-06-29T01:17:33.832Z,0
2017-06-29T01:18:48.178Z,0
2017-06-29T01:19:33.882Z,0
2017-06-29T01:20:33.913Z,0
2017-06-29T01:22:33.967Z,0
2017-06-29T01:23:33.690Z,0
2017-06-29T01:24:34.015Z,0
2017-06-29T01:25:48.654Z,0
2017-06-29T01:26:34.066Z,0
2017-06-29T01:27:34.088Z,0
2017-06-29T01:28:34.179Z,0
2017-06-29T01:30:03.375Z,0
2017-06-29T01:30:34.165Z,0
2017-06-29T01:31:34.194Z,0
2017-06-29T01:33:34.253Z,0
2017-06-29T01:35:33.989Z,0
2017-06-29T01:36:34.317Z,0
2017-06-29T01:37:34.048Z,0
2017-06-29T01:38:48.994Z,0
2017-06-29T01:39:34.398Z,0
2017-06-29T01:40:34.420Z,0
2017-06-29T01:41:34.449Z,0
2017-06-29T01:42:49.090Z,0
2017-06-29T01:43:34.500Z,0
2017-06-29T01:44:34.525Z,0
2017-06-29T01:46:49.192Z,0
2017-06-29T01:47:34.605Z,0
2017-06-29T01:48:34.324Z,0
2017-06-29T01:49:49.270Z,0
2017-06-29T01:50:34.683Z,0
2017-06-29T01:51:34.703Z,0
2017-06-29T01:52:49.355Z,0
2017-06-29T01:53:34.759Z,0
2017-06-29T01:54:49.448Z,0
2017-06-29T01:55:34.806Z,0
2017-06-29T01:56:34.827Z,0
2017-06-29T01:57:34.551Z,0
2017-06-29T01:58:49.505Z,0
2017-06-29T01:59:34.907Z,0
2017-06-29T02:00:49.247Z,0
2017-06-29T02:01:49.577Z,0
2017-06-29T02:02:49.297Z,0
2017-06-29T02:03:49.626Z,0
2017-06-29T02:04:35.091Z,0
2017-06-29T02:05:34.754Z,0
2017-06-29T02:08:49.762Z,0
2017-06-29T02:09:35.164Z,0
2017-06-29T02:10:35.182Z,0
2017-06-29T02:11:34.910Z,0
2017-06-29T02:12:35.235Z,0
2017-06-29T02:13:35.265Z,0
2017-06-29T02:15:04.525Z,0
2017-06-29T02:16:04.548Z,0
2017-06-29T02:16:35.338Z,0
2017-06-29T02:17:35.365Z,0
2017-06-29T02:18:35.394Z,0
2017-06-29T02:21:50.087Z,0
2017-06-29T02:22:35.193Z,0
2017-06-29T02:23:35.523Z,0
2017-06-29T02:25:35.571Z,0
2017-06-29T02:26:50.213Z,0
2017-06-29T02:27:35.616Z,0
2017-06-29T02:28:35.643Z,0
2017-06-29T02:29:50.285Z,0
2017-06-29T02:30:35.699Z,0
2017-06-29T02:31:50.338Z,0
2017-06-29T02:32:35.746Z,0
2017-06-29T02:33:35.774Z,0
2017-06-29T02:34:35.794Z,0
2017-06-29T02:35:35.823Z,0
2017-06-29T02:36:50.462Z,0
2017-06-29T02:38:35.902Z,0
2017-06-29T02:39:35.970Z,0
2017-06-29T02:40:35.952Z,0
2017-06-29T02:41:35.980Z,0
2017-06-29T02:42:36.008Z,0
2017-06-29T02:43:35.722Z,0
2017-06-29T02:44:36.050Z,0
2017-06-29T02:45:36.079Z,0
2017-06-29T02:46:36.098Z,0
2017-06-29T02:47:50.746Z,5
2017-06-29T02:48:36.163Z,5
2017-06-29T02:49:36.178Z,5
2017-06-29T02:50:50.819Z,5
2017-06-29T02:51:36.229Z,5
2017-06-29T02:52:35.954Z,5
2017-06-29T02:53:50.892Z,5
2017-06-29T02:54:36.304Z,5
2017-06-29T02:55:36.330Z,5
2017-06-29T02:56:36.357Z,10
2017-06-29T02:57:50.998Z,10
2017-06-29T02:58:51.022Z,10
2017-06-29T02:59:36.432Z,10
2017-06-29T03:00:36.452Z,10
2017-06-29T03:01:51.099Z,10
2017-06-29T03:02:36.508Z,10
2017-06-29T03:03:36.540Z,10
2017-06-29T03:04:51.167Z,15
2017-06-29T03:05:51.200Z,15
2017-06-29T03:07:05.838Z,15
2017-06-29T03:07:36.730Z,15
2017-06-29T03:08:36.667Z,15
2017-06-29T03:09:51.299Z,15
2017-06-29T03:10:36.712Z,20
2017-06-29T03:11:36.730Z,20
2017-06-29T03:12:36.761Z,20
2017-06-29T03:14:36.813Z,20
2017-06-29T03:15:36.527Z,20
2017-06-29T03:16:36.558Z,20
2017-06-29T03:17:36.886Z,20
2017-06-29T03:18:36.919Z,25
2017-06-29T03:19:36.937Z,25
2017-06-29T03:20:51.579Z,30
2017-06-29T03:21:36.684Z,30
2017-06-29T03:22:51.628Z,30
2017-06-29T03:23:37.039Z,25
2017-06-29T03:24:51.676Z,20
2017-06-29T03:25:36.786Z,20
2017-06-29T03:26:37.114Z,20
2017-06-29T03:27:37.141Z,25
2017-06-29T03:28:51.784Z,35
2017-06-29T03:29:37.203Z,40
2017-06-29T03:30:37.215Z,40
2017-06-29T03:31:37.241Z,40
2017-06-29T03:32:51.929Z,45
2017-06-29T03:33:37.296Z,45
2017-06-29T03:34:37.325Z,50
2017-06-29T03:35:51.961Z,60
2017-06-29T03:36:37.363Z,60
2017-06-29T03:37:37.393Z,65
2017-06-29T03:38:37.425Z,60
2017-06-29T03:40:37.473Z,60
2017-06-29T03:41:37.489Z,60
2017-06-29T03:42:37.522Z,55
2017-06-29T03:43:37.548Z,55
2017-06-29T03:44:37.569Z,65
2017-06-29T03:45:37.591Z,75
2017-06-29T03:46:37.622Z,85
2017-06-29T03:47:52.268Z,80
2017-06-29T03:48:37.673Z,70
2017-06-29T03:49:52.312Z,70
2017-06-29T03:50:37.756Z,70
2017-06-29T03:51:37.752Z,70
2017-06-29T03:52:37.475Z,70
2017-06-29T03:53:37.498Z,70
2017-06-29T03:54:52.439Z,70
2017-06-29T03:55:37.849Z,70
2017-06-29T03:56:52.543Z,70
2017-06-29T03:57:37.900Z,75
2017-06-29T03:58:37.924Z,85
2017-06-29T03:59:52.579Z,90
2017-06-29T04:00:38.077Z,90
2017-06-29T04:01:37.705Z,80
2017-06-29T04:02:38.029Z,70
2017-06-29T04:03:52.672Z,70
2017-06-29T04:04:52.698Z,60
2017-06-29T04:05:38.109Z,55
2017-06-29T04:06:52.748Z,50
2017-06-29T04:07:38.156Z,45
2017-06-29T04:08:38.178Z,45
2017-06-29T04:09:52.827Z,45
2017-06-29T04:11:07.465Z,45
2017-06-29T04:11:52.874Z,45
2017-06-29T04:12:52.901Z,40
2017-06-29T04:13:38.309Z,45
2017-06-29T04:14:38.342Z,45
2017-06-29T04:16:38.395Z,40
2017-06-29T04:17:38.414Z,40
2017-06-29T04:18:38.440Z,40
2017-06-29T04:19:38.465Z,40
2017-06-29T04:20:38.489Z,40
2017-06-29T04:21:38.513Z,35
2017-06-29T04:22:38.240Z,35
2017-06-29T04:23:38.570Z,35
2017-06-29T04:24:38.592Z,35
2017-06-29T04:25:52.934Z,35
2017-06-29T04:27:38.677Z,35
2017-06-29T04:28:53.315Z,35
2017-06-29T04:29:38.418Z,35
2017-06-29T04:30:38.748Z,35
2017-06-29T04:31:38.780Z,35
2017-06-29T04:32:38.815Z,35
2017-06-29T04:33:38.875Z,35
2017-06-29T04:34:53.163Z,35
2017-06-29T04:35:53.498Z,35
2017-06-29T04:36:38.896Z,35
2017-06-29T04:37:38.928Z,35
2017-06-29T04:38:38.949Z,30
2017-06-29T04:41:08.234Z,30
2017-06-29T04:41:53.645Z,35
2017-06-29T04:42:39.054Z,35
2017-06-29T04:43:39.080Z,40
2017-06-29T04:44:53.770Z,40
2017-06-29T04:45:39.132Z,40
2017-06-29T04:46:39.158Z,35
2017-06-29T04:48:39.205Z,40
2017-06-29T04:49:53.897Z,45
2017-06-29T04:50:39.258Z,50
2017-06-29T04:51:39.281Z,55
2017-06-29T04:53:53.952Z,45
2017-06-29T04:54:53.979Z,45
2017-06-29T04:55:39.387Z,50
2017-06-29T04:56:53.724Z,55
2017-06-29T04:57:39.158Z,60
2017-06-29T04:58:39.165Z,55
2017-06-29T04:59:54.105Z,60
2017-06-29T05:00:39.624Z,60
2017-06-29T05:01:39.541Z,60
2017-06-29T05:02:39.567Z,60
2017-06-29T05:04:39.620Z,65
2017-06-29T05:05:39.643Z,60
2017-06-29T05:06:39.672Z,55
2017-06-29T05:07:39.697Z,55
2017-06-29T05:08:54.342Z,55
2017-06-29T05:09:39.752Z,55
2017-06-29T05:10:54.392Z,70
2017-06-29T05:12:39.521Z,95
2017-06-29T05:13:54.172Z,110
2017-06-29T05:14:39.881Z,115
2017-06-29T05:15:39.903Z,135
2017-06-29T05:16:39.951Z,165
2017-06-29T05:17:39.964Z,160
2017-06-29T05:18:39.980Z,155
2017-06-29T05:19:40.002Z,150
2017-06-29T05:20:40.032Z,155
2017-06-29T05:21:54.707Z,140
2017-06-29T05:22:54.705Z,145
2017-06-29T05:23:54.725Z,135
2017-06-29T05:24:40.136Z,135
2017-06-29T05:25:40.167Z,130
2017-06-29T05:26:40.190Z,120
2017-06-29T05:27:40.215Z,115
2017-06-29T05:28:40.241Z,145
2017-06-29T05:29:39.968Z,225
2017-06-29T05:30:40.370Z,400
2017-06-29T05:31:54.934Z,375
2017-06-29T05:32:40.346Z,380
2017-06-29T05:34:40.397Z,560
2017-06-29T05:35:40.428Z,670
2017-06-29T05:36:40.459Z,785
2017-06-29T05:37:40.479Z,865
2017-06-29T05:38:40.506Z,865
2017-06-29T05:39:40.529Z,925
2017-06-29T05:40:40.562Z,890
2017-06-29T05:41:40.618Z,810
2017-06-29T05:42:40.670Z,765
2017-06-29T05:43:40.656Z,290
2017-06-29T05:44:55.294Z,180
2017-06-29T05:45:40.705Z,155
2017-06-29T05:47:55.084Z,120
2017-06-29T05:48:40.798Z,115
2017-06-29T05:49:55.190Z,90
2017-06-29T05:50:40.552Z,85
2017-06-29T05:51:40.578Z,85
2017-06-29T05:52:40.604Z,90
2017-06-29T05:53:40.642Z,95
2017-06-29T05:54:40.970Z,95
2017-06-29T05:55:40.694Z,90
2017-06-29T05:56:41.026Z,90
2017-06-29T05:57:41.057Z,95
2017-06-29T05:58:41.086Z,100
2017-06-29T05:59:41.112Z,110
2017-06-29T06:00:41.085Z,125
2017-06-29T06:01:55.782Z,130
2017-06-29T06:02:40.893Z,140
2017-06-29T06:04:40.945Z,185
2017-06-29T06:05:41.277Z,205
2017-06-29T06:06:41.104Z,210
2017-06-29T06:07:41.334Z,235
2017-06-29T06:08:55.370Z,270
2017-06-29T06:09:41.390Z,365
2017-06-29T06:10:41.417Z,425
2017-06-29T06:11:41.449Z,790
2017-06-29T06:12:41.471Z,770
2017-06-29T06:13:56.169Z,430
2017-06-29T06:14:41.533Z,575
2017-06-29T06:15:41.555Z,860
2017-06-29T06:16:41.589Z,785
2017-06-29T06:17:41.720Z,490
2017-06-29T06:18:41.645Z,590
2017-06-29T06:19:56.290Z,790
2017-06-29T06:20:41.839Z,895
2017-06-29T06:21:41.425Z,420
2017-06-29T06:22:41.190Z,480
2017-06-29T06:23:41.847Z,700
2017-06-29T06:24:41.921Z,950
2017-06-29T06:25:41.845Z,1010
2017-06-29T06:26:56.496Z,305
2017-06-29T06:27:56.227Z,255
2017-06-29T06:28:41.939Z,195
2017-06-29T06:29:56.636Z,195
2017-06-29T06:30:42.022Z,215
2017-06-29T06:31:42.037Z,245
2017-06-29T06:33:42.086Z,170
2017-06-29T06:34:56.741Z,175
2017-06-29T06:35:42.150Z,210
2017-06-29T06:36:42.212Z,210
2017-06-29T06:37:42.211Z,205
2017-06-29T06:39:42.277Z,1045
2017-06-29T06:40:42.301Z,225
2017-06-29T06:41:42.324Z,170
2017-06-29T06:42:57.022Z,155
2017-06-29T06:43:57.003Z,150
2017-06-29T06:44:42.415Z,150
2017-06-29T06:45:42.287Z,150
2017-06-29T06:47:11.708Z,180
2017-06-29T06:47:42.505Z,200
2017-06-29T06:48:42.541Z,190
2017-06-29T06:49:42.613Z,185
2017-06-29T06:50:42.287Z,185
2017-06-29T06:51:42.630Z,175
2017-06-29T06:52:42.513Z,180
2017-06-29T06:53:42.687Z,165
2017-06-29T06:56:42.763Z,145
2017-06-29T06:57:42.491Z,150
2017-06-29T06:59:42.249Z,160
2017-06-29T07:00:42.576Z,160
2017-06-29T07:01:43.059Z,165
2017-06-29T07:02:57.608Z,170
2017-06-29T07:03:42.961Z,165
2017-06-29T07:04:43.050Z,160
2017-06-29T07:05:43.058Z,155
2017-06-29T07:06:57.665Z,160
2017-06-29T07:07:43.133Z,155
2017-06-29T07:08:42.909Z,155
2017-06-29T07:09:42.829Z,155
2017-06-29T07:10:43.172Z,155
2017-06-29T07:11:43.189Z,155
2017-06-29T07:12:43.241Z,155
2017-06-29T07:13:43.300Z,150
2017-06-29T07:14:43.279Z,145
2017-06-29T07:15:43.308Z,135
2017-06-29T07:16:43.334Z,130
2017-06-29T07:17:43.518Z,125
2017-06-29T07:18:42.784Z,130
2017-06-29T07:19:43.423Z,130
2017-06-29T07:20:43.555Z,130
2017-06-29T07:21:43.477Z,130
2017-06-29T07:22:57.817Z,130
2017-06-29T07:23:43.584Z,130
2017-06-29T07:24:43.258Z,125
2017-06-29T07:25:43.589Z,125
2017-06-29T07:26:43.313Z,120
2017-06-29T07:27:43.342Z,120
2017-06-29T07:28:43.674Z,120
2017-06-29T07:29:43.701Z,120
2017-06-29T07:30:58.501Z,110
2017-06-29T07:31:43.753Z,105
2017-06-29T07:32:43.789Z,95
2017-06-29T07:33:43.569Z,85
2017-06-29T07:34:58.459Z,85
2017-06-29T07:35:58.493Z,85
2017-06-29T07:36:43.993Z,80
2017-06-29T07:37:43.924Z,70
2017-06-29T07:38:58.570Z,55
2017-06-29T07:40:43.867Z,55
2017-06-29T07:42:58.692Z,50
2017-06-29T07:43:44.146Z,55
2017-06-29T07:44:44.119Z,55
2017-06-29T07:45:44.143Z,55
2017-06-29T07:46:44.171Z,55
2017-06-29T07:47:58.517Z,50
2017-06-29T07:48:58.853Z,50
2017-06-29T07:49:44.255Z,50
2017-06-29T07:50:58.901Z,45
2017-06-29T07:51:44.013Z,45
2017-06-29T07:52:44.394Z,40
2017-06-29T07:53:44.452Z,40
2017-06-29T07:54:59.012Z,40
2017-06-29T07:55:44.423Z,40
2017-06-29T07:56:44.452Z,45
2017-06-29T07:57:44.173Z,45
2017-06-29T07:58:44.201Z,50
2017-06-29T07:59:59.196Z,60
2017-06-29T08:00:44.558Z,65
2017-06-29T08:01:44.639Z,70
2017-06-29T08:02:44.358Z,75
2017-06-29T08:03:59.253Z,90
2017-06-29T08:05:44.703Z,110
2017-06-29T08:07:44.752Z,125
2017-06-29T08:08:59.444Z,125
2017-06-29T08:09:59.523Z,120
2017-06-29T08:10:44.530Z,120
2017-06-29T08:12:44.635Z,115
2017-06-29T08:13:44.614Z,115
2017-06-29T08:14:44.942Z,120
2017-06-29T08:15:44.563Z,125
2017-06-29T08:16:44.693Z,135
2017-06-29T08:17:44.715Z,150
2017-06-29T08:18:45.045Z,150
2017-06-29T08:19:59.389Z,165
2017-06-29T08:20:44.802Z,165
2017-06-29T08:22:14.367Z,160
2017-06-29T08:22:59.779Z,155
2017-06-29T08:23:45.189Z,155
2017-06-29T08:24:45.220Z,155
2017-06-29T08:25:45.395Z,155
2017-06-29T08:26:45.268Z,150
2017-06-29T08:27:45.001Z,150
2017-06-29T08:28:45.173Z,145
2017-06-29T08:29:45.353Z,130
2017-06-29T08:30:45.385Z,110
2017-06-29T08:31:59.774Z,90
2017-06-29T08:33:00.055Z,75
2017-06-29T08:33:45.468Z,70
2017-06-29T08:34:45.190Z,70
2017-06-29T08:35:45.520Z,70
2017-06-29T08:36:45.548Z,65
2017-06-29T08:37:45.574Z,65
2017-06-29T08:38:45.646Z,60
2017-06-29T08:39:59.943Z,55
2017-06-29T08:42:00.452Z,50
2017-06-29T08:42:45.714Z,55
2017-06-29T08:43:45.489Z,55
2017-06-29T08:44:45.765Z,55
2017-06-29T08:46:45.823Z,55
2017-06-29T08:47:45.947Z,55
2017-06-29T08:48:45.578Z,50
2017-06-29T08:49:45.917Z,50
2017-06-29T08:51:00.576Z,45
2017-06-29T08:51:46.181Z,45
2017-06-29T08:52:45.999Z,45
2017-06-29T08:53:45.420Z,40
2017-06-29T08:55:00.464Z,35
2017-06-29T08:55:45.482Z,30
2017-06-29T08:56:46.111Z,25
2017-06-29T08:58:46.175Z,20
2017-06-29T08:59:45.902Z,20
2017-06-29T09:00:46.537Z,15
2017-06-29T09:01:45.956Z,15
2017-06-29T09:03:45.998Z,15
2017-06-29T09:04:46.329Z,15
2017-06-29T09:05:46.361Z,15
2017-06-29T09:06:46.407Z,15
2017-06-29T09:07:46.581Z,15
2017-06-29T09:08:46.137Z,15
2017-06-29T09:09:46.450Z,15
2017-06-29T09:10:46.478Z,15
2017-06-29T09:12:01.121Z,15
2017-06-29T09:12:46.540Z,15
2017-06-29T09:14:15.803Z,10
2017-06-29T09:15:00.960Z,15
2017-06-29T09:15:46.312Z,15
2017-06-29T09:16:46.340Z,15
2017-06-29T09:17:46.116Z,15
2017-06-29T09:18:46.397Z,10
2017-06-29T09:19:46.432Z,10
2017-06-29T09:20:46.910Z,10
2017-06-29T09:21:46.547Z,10
2017-06-29T09:23:01.129Z,15
2017-06-29T09:23:46.919Z,15
2017-06-29T09:24:46.585Z,15
2017-06-29T09:25:46.622Z,15
2017-06-29T09:26:47.253Z,15
2017-06-29T09:28:01.591Z,10
2017-06-29T09:28:46.082Z,10
2017-06-29T09:30:01.622Z,10
2017-06-29T09:30:47.097Z,10
2017-06-29T09:31:47.043Z,10
2017-06-29T09:32:47.068Z,10
2017-06-29T09:33:47.099Z,10
2017-06-29T09:34:47.124Z,10
2017-06-29T09:35:47.160Z,10
2017-06-29T09:36:47.179Z,10
2017-06-29T09:37:46.297Z,10
2017-06-29T09:38:47.228Z,5
2017-06-29T09:39:47.281Z,5
2017-06-29T09:40:46.979Z,5
2017-06-29T09:41:47.308Z,10
2017-06-29T09:43:01.648Z,10
2017-06-29T09:45:02.006Z,15
2017-06-29T09:45:47.125Z,15
2017-06-29T09:46:46.836Z,15
2017-06-29T09:47:47.166Z,15
2017-06-29T09:48:47.189Z,10
2017-06-29T09:50:02.186Z,10
2017-06-29T09:50:47.325Z,5
2017-06-29T09:51:47.269Z,5
2017-06-29T09:52:47.996Z,10
2017-06-29T09:53:47.317Z,15
2017-06-29T09:54:47.681Z,10
2017-06-29T09:56:02.086Z,15
2017-06-29T09:57:02.017Z,15
2017-06-29T09:57:47.421Z,20
2017-06-29T09:58:47.196Z,20
2017-06-29T09:59:47.780Z,20
2017-06-29T10:00:47.202Z,20
2017-06-29T10:01:47.834Z,25
2017-06-29T10:02:48.358Z,25
2017-06-29T10:03:47.892Z,20
2017-06-29T10:04:47.956Z,20
2017-06-29T10:05:48.189Z,15
2017-06-29T10:07:02.576Z,15
2017-06-29T10:07:47.997Z,15
2017-06-29T10:09:02.637Z,15
2017-06-29T10:09:47.732Z,15
2017-06-29T10:10:48.062Z,10
2017-06-29T10:11:48.085Z,10
2017-06-29T10:12:48.214Z,10
2017-06-29T10:14:48.160Z,15
2017-06-29T10:15:48.296Z,15
2017-06-29T10:17:02.833Z,15
2017-06-29T10:17:48.240Z,15
2017-06-29T10:18:48.564Z,15
2017-06-29T10:19:48.289Z,15
2017-06-29T10:20:48.318Z,15
2017-06-29T10:21:48.345Z,15
2017-06-29T10:22:48.371Z,15
2017-06-29T10:24:03.012Z,15
2017-06-29T10:24:48.417Z,15
2017-06-29T10:26:03.058Z,15
2017-06-29T10:26:47.860Z,15
2017-06-29T10:28:03.112Z,15
2017-06-29T10:28:48.623Z,15
2017-06-29T10:30:02.860Z,15
2017-06-29T10:31:03.238Z,20
2017-06-29T10:31:48.596Z,20
2017-06-29T10:33:03.238Z,20
2017-06-29T10:33:48.347Z,20
2017-06-29T10:34:48.684Z,20
2017-06-29T10:35:48.906Z,25
2017-06-29T10:37:03.347Z,30
2017-06-29T10:37:48.449Z,30
2017-06-29T10:38:48.776Z,30
2017-06-29T10:39:48.604Z,35
2017-06-29T10:40:48.832Z,30
2017-06-29T10:42:03.170Z,25
2017-06-29T10:43:01.635Z,25
2017-06-29T10:44:03.535Z,25
2017-06-29T10:45:03.573Z,30
2017-06-29T10:45:48.962Z,30
2017-06-29T10:47:03.638Z,35
2017-06-29T10:47:48.725Z,35
2017-06-29T10:49:03.384Z,40
2017-06-29T10:49:49.406Z,45
2017-06-29T10:50:48.846Z,50
2017-06-29T10:51:48.877Z,50
2017-06-29T10:52:49.226Z,50
2017-06-29T10:53:49.008Z,55
2017-06-29T10:54:48.950Z,55
2017-06-29T10:55:49.263Z,50
2017-06-29T10:56:49.561Z,45
2017-06-29T10:57:49.388Z,45
2017-06-29T10:59:03.658Z,40
2017-06-29T10:59:49.733Z,40
2017-06-29T11:00:49.406Z,40
2017-06-29T11:01:48.829Z,45
2017-06-29T11:03:04.174Z,55
2017-06-29T11:03:49.479Z,50
2017-06-29T11:05:18.410Z,60
2017-06-29T11:05:49.251Z,65
2017-06-29T11:07:04.180Z,65
2017-06-29T11:08:04.196Z,60
2017-06-29T11:09:04.310Z,60
2017-06-29T11:09:49.710Z,60
2017-06-29T11:10:49.349Z,70
2017-06-29T11:11:49.710Z,90
2017-06-29T11:12:49.724Z,95
2017-06-29T11:13:49.439Z,100
2017-06-29T11:15:04.136Z,95
2017-06-29T11:16:04.383Z,95
2017-06-29T11:16:49.489Z,90
2017-06-29T11:17:49.559Z,85
2017-06-29T11:18:49.861Z,80
2017-06-29T11:20:04.522Z,70
2017-06-29T11:20:49.939Z,70
2017-06-29T11:21:49.966Z,65
2017-06-29T11:22:49.652Z,60
2017-06-29T11:23:49.991Z,60
2017-06-29T11:24:49.733Z,60
2017-06-29T11:25:49.548Z,60
2017-06-29T11:26:50.101Z,55
2017-06-29T11:27:50.098Z,50
2017-06-29T11:28:50.171Z,50
2017-06-29T11:29:49.842Z,50
2017-06-29T11:30:49.895Z,45
2017-06-29T11:31:50.195Z,45
2017-06-29T11:32:50.347Z,40
2017-06-29T11:34:50.310Z,50
2017-06-29T11:35:50.699Z,55
2017-06-29T11:37:04.936Z,45
2017-06-29T11:37:50.360Z,35
2017-06-29T11:38:50.406Z,35
2017-06-29T11:39:50.408Z,35
2017-06-29T11:41:05.051Z,35
2017-06-29T11:41:50.703Z,45
2017-06-29T11:42:50.498Z,50
2017-06-29T11:43:50.517Z,60
2017-06-29T11:44:50.594Z,65
2017-06-29T11:45:50.567Z,65
2017-06-29T11:46:50.592Z,65
2017-06-29T11:48:04.917Z,65
2017-06-29T11:48:50.791Z,65
2017-06-29T11:49:50.698Z,65
2017-06-29T11:50:50.726Z,65
2017-06-29T11:52:50.723Z,55
2017-06-29T11:53:50.764Z,55
2017-06-29T11:54:50.811Z,55
2017-06-29T11:55:50.835Z,50
2017-06-29T11:56:50.866Z,50
2017-06-29T11:57:50.885Z,55
2017-06-29T11:58:51.200Z,60
2017-06-29T11:59:50.907Z,55
2017-06-29T12:00:51.016Z,55
2017-06-29T12:03:05.317Z,55
2017-06-29T12:03:51.040Z,55
2017-06-29T12:04:51.125Z,60
2017-06-29T12:06:05.681Z,70
2017-06-29T12:06:51.109Z,70
2017-06-29T12:08:05.460Z,75
2017-06-29T12:08:51.231Z,75
2017-06-29T12:09:50.870Z,70
2017-06-29T12:11:05.819Z,65
2017-06-29T12:12:20.446Z,60
2017-06-29T12:12:51.307Z,55
2017-06-29T12:13:51.302Z,50
2017-06-29T12:15:51.328Z,35
2017-06-29T12:16:51.667Z,35
2017-06-29T12:18:20.592Z,40
2017-06-29T12:18:51.426Z,40
2017-06-29T12:20:06.188Z,40
2017-06-29T12:20:51.484Z,35
2017-06-29T12:21:51.495Z,35
2017-06-29T12:23:06.125Z,35
2017-06-29T12:24:51.550Z,35
2017-06-29T12:26:05.890Z,35
2017-06-29T12:26:51.721Z,35
2017-06-29T12:27:51.361Z,35
2017-06-29T12:28:51.686Z,30
2017-06-29T12:29:51.707Z,30
2017-06-29T12:30:51.416Z,35
2017-06-29T12:31:51.742Z,35
2017-06-29T12:32:51.496Z,35
2017-06-29T12:33:51.493Z,35
2017-06-29T12:34:51.826Z,40
2017-06-29T12:35:51.866Z,40
2017-06-29T12:37:06.495Z,45
2017-06-29T12:37:52.016Z,45
2017-06-29T12:38:51.936Z,45
2017-06-29T12:40:21.153Z,45
2017-06-29T12:40:51.781Z,45
2017-06-29T12:42:06.610Z,50
2017-06-29T12:42:51.724Z,50
2017-06-29T12:43:52.106Z,45
2017-06-29T12:44:52.097Z,50
2017-06-29T12:45:52.114Z,50
2017-06-29T12:46:52.143Z,50
2017-06-29T12:47:52.374Z,50
2017-06-29T12:48:52.252Z,45
2017-06-29T12:50:06.810Z,40
2017-06-29T12:50:53.044Z,45
2017-06-29T12:51:51.981Z,50
2017-06-29T12:52:52.305Z,50
2017-06-29T12:53:52.401Z,50
2017-06-29T12:55:06.747Z,50
2017-06-29T12:55:52.376Z,50
2017-06-29T12:56:52.397Z,50
2017-06-29T12:57:52.201Z,45
2017-06-29T12:58:52.143Z,45
2017-06-29T12:59:52.163Z,45
2017-06-29T13:01:52.578Z,55
2017-06-29T13:03:07.155Z,60
2017-06-29T13:03:52.441Z,60
2017-06-29T13:04:52.615Z,60
2017-06-29T13:06:52.662Z,70
2017-06-29T13:08:52.363Z,80
2017-06-29T13:10:07.379Z,85
2017-06-29T13:10:52.800Z,85
2017-06-29T13:11:52.478Z,90
2017-06-29T13:12:52.815Z,90
2017-06-29T13:13:52.761Z,90
2017-06-29T13:14:52.863Z,95
2017-06-29T13:15:52.871Z,105
2017-06-29T13:16:52.925Z,110
2017-06-29T13:17:53.012Z,115
2017-06-29T13:18:52.979Z,125
2017-06-29T13:20:07.634Z,130
2017-06-29T13:20:53.227Z,130
2017-06-29T13:21:53.028Z,130
2017-06-29T13:22:52.753Z,130
2017-06-29T13:23:53.138Z,130
2017-06-29T13:24:53.123Z,135
2017-06-29T13:25:53.147Z,140
2017-06-29T13:27:07.750Z,145
2017-06-29T13:28:53.201Z,150
2017-06-29T13:29:52.617Z,150
2017-06-29T13:30:53.476Z,160
2017-06-29T13:32:07.588Z,170
2017-06-29T13:32:53.306Z,175
2017-06-29T13:33:53.090Z,180
2017-06-29T13:34:53.381Z,170
2017-06-29T13:35:53.424Z,160
2017-06-29T13:36:53.400Z,160
2017-06-29T13:37:53.243Z,155
2017-06-29T13:38:53.458Z,155
2017-06-29T13:39:53.514Z,155
2017-06-29T13:40:53.508Z,145
2017-06-29T13:41:53.569Z,140
2017-06-29T13:43:08.174Z,135
2017-06-29T13:43:53.651Z,135
2017-06-29T13:44:53.678Z,135
2017-06-29T13:45:53.653Z,135
2017-06-29T13:46:53.700Z,130
2017-06-29T13:47:54.067Z,125
2017-06-29T13:49:08.348Z,125
2017-06-29T13:49:53.747Z,125
2017-06-29T13:50:53.988Z,125
2017-06-29T13:52:08.423Z,130
2017-06-29T13:52:53.837Z,130
2017-06-29T13:53:53.876Z,140
2017-06-29T13:54:53.911Z,135
2017-06-29T13:55:53.907Z,135
2017-06-29T13:56:53.344Z,130
2017-06-29T13:57:53.459Z,125
2017-06-29T13:59:23.211Z,105
2017-06-29T13:59:54.038Z,105
2017-06-29T14:00:53.899Z,95
2017-06-29T14:01:53.831Z,90
2017-06-29T14:02:53.484Z,95
2017-06-29T14:03:54.129Z,95
2017-06-29T14:04:54.176Z,100
2017-06-29T14:05:54.208Z,95
2017-06-29T14:06:53.899Z,100
2017-06-29T14:08:54.260Z,125
2017-06-29T14:10:09.006Z,155
2017-06-29T14:10:54.509Z,155
2017-06-29T14:11:54.084Z,160
2017-06-29T14:13:08.980Z,175
2017-06-29T14:14:09.081Z,170
2017-06-29T14:16:09.061Z,190
2017-06-29T14:17:54.776Z,190
2017-06-29T14:19:09.116Z,170
2017-06-29T14:20:54.590Z,160
2017-06-29T14:21:54.303Z,180
2017-06-29T14:22:54.643Z,175
2017-06-29T14:23:54.727Z,165
2017-06-29T14:24:54.674Z,170
2017-06-29T14:27:09.394Z,185
2017-06-29T14:27:54.466Z,165
2017-06-29T14:28:54.782Z,155
2017-06-29T14:30:24.086Z,160
2017-06-29T14:30:54.979Z,165
2017-06-29T14:31:54.557Z,160
2017-06-29T14:33:09.519Z,155
2017-06-29T14:33:54.929Z,160
2017-06-29T14:34:55.048Z,165
2017-06-29T14:35:54.989Z,165
2017-06-29T14:36:55.034Z,135
2017-06-29T14:38:09.730Z,90
2017-06-29T14:39:09.660Z,70
2017-06-29T14:40:54.187Z,80
2017-06-29T14:41:55.344Z,90
2017-06-29T14:42:55.167Z,85
2017-06-29T14:43:54.900Z,90
2017-06-29T14:44:55.378Z,100
2017-06-29T14:46:09.853Z,115
2017-06-29T14:46:55.318Z,105
2017-06-29T14:47:54.998Z,85
2017-06-29T14:48:55.352Z,80
2017-06-29T14:49:55.346Z,80
2017-06-29T14:50:55.536Z,70
2017-06-29T14:52:10.022Z,60
2017-06-29T14:52:55.115Z,55
2017-06-29T14:53:55.685Z,50
2017-06-29T14:54:55.178Z,45
2017-06-29T14:55:55.214Z,40
2017-06-29T14:56:55.730Z,35
2017-06-29T14:57:55.565Z,30
2017-06-29T14:59:10.195Z,25
2017-06-29T14:59:55.308Z,20
2017-06-29T15:00:55.663Z,20
2017-06-29T15:02:24.877Z,15
2017-06-29T15:02:55.711Z,15
2017-06-29T15:03:56.031Z,15
2017-06-29T15:04:55.731Z,15
2017-06-29T15:05:55.785Z,20
2017-06-29T15:06:55.914Z,20
2017-06-29T15:07:55.839Z,20
2017-06-29T15:08:55.828Z,20
2017-06-29T15:09:55.924Z,20
2017-06-29T15:10:55.946Z,10
2017-06-29T15:12:10.535Z,10
2017-06-29T15:12:55.640Z,10
2017-06-29T15:14:10.598Z,10
2017-06-29T15:15:56.032Z,10